createdAt,value
2023-01-29T00:00:28.864Z,100838.73
2023-01-29T00:01:32.059Z,100838.73
2023-01-29T00:02:35.836Z,100832.38
2023-01-29T00:03:39.016Z,100840.30
2023-01-29T00:04:42.209Z,100835.63
2023-01-29T00:05:45.252Z,100831.92
2023-01-29T00:06:50.296Z,100837.16
2023-01-29T00:07:55.366Z,100838.01
2023-01-29T00:08:58.469Z,100829.10
2023-01-29T00:10:01.541Z,100836.31
2023-01-29T00:11:06.606Z,100839.00
2023-01-29T00:12:09.704Z,100839.00
2023-01-29T00:13:12.753Z,100830.94
2023-01-29T00:14:15.908Z,100832.77
2023-01-29T00:15:20.195Z,100836.45
2023-01-29T00:16:23.592Z,100835.63
2023-01-29T00:17:27.695Z,100838.32
2023-01-29T00:18:31.203Z,100835.77
2023-01-29T00:19:35.665Z,100831.25
2023-01-29T00:20:38.977Z,100840.16
2023-01-29T00:21:42.072Z,100839.98
2023-01-29T00:22:45.252Z,100830.09
2023-01-29T00:23:48.941Z,100833.63
2023-01-29T00:24:52.019Z,100826.42
2023-01-29T00:25:56.957Z,100836.17
2023-01-29T00:27:00.230Z,100830.80
2023-01-29T00:28:03.458Z,100819.20
2023-01-29T00:29:06.648Z,100831.92
2023-01-29T00:30:16.046Z,100827.86
2023-01-29T00:31:22.294Z,100827.32
2023-01-29T00:32:25.465Z,100826.92
2023-01-29T00:33:28.968Z,100826.35
2023-01-29T00:34:32.127Z,100825.67
2023-01-29T00:35:35.352Z,100830.02
2023-01-29T00:36:39.020Z,100823.84
2023-01-29T00:37:42.182Z,100826.35
2023-01-29T00:38:50.709Z,100828.89
2023-01-29T00:39:53.868Z,100824.38
2023-01-29T00:41:15.785Z,100823.22
2023-01-29T00:42:37.059Z,100825.77
2023-01-29T00:43:48.060Z,100813.89
2023-01-29T00:44:57.293Z,100824.32
2023-01-29T00:46:00.580Z,100821.50
2023-01-29T00:47:09.787Z,100831.25
2023-01-29T00:48:12.873Z,100820.33
2023-01-29T00:49:16.149Z,100818.36
2023-01-29T00:50:19.603Z,100815.53
2023-01-29T00:51:22.796Z,100811.86
2023-01-29T00:52:26.523Z,100817.91
2023-01-29T00:53:31.841Z,100807.16
2023-01-29T00:54:35.630Z,100818.75
2023-01-29T00:55:38.986Z,100815.22
2023-01-29T00:56:42.252Z,100815.22
2023-01-29T00:57:45.498Z,100811.54
2023-01-29T00:58:50.420Z,100805.18
2023-01-29T00:59:54.032Z,100805.18
2023-01-29T01:00:57.334Z,100804.33
2023-01-29T01:02:19.066Z,100805.32
2023-01-29T01:03:22.279Z,100805.46
2023-01-29T01:04:25.475Z,100802.95
2023-01-29T01:05:28.844Z,100798.70
2023-01-29T01:06:35.914Z,100803.41
2023-01-29T01:07:40.192Z,100803.55
2023-01-29T01:09:01.822Z,100796.16
2023-01-29T01:10:20.553Z,100803.41
2023-01-29T01:11:23.757Z,100796.16
2023-01-29T01:12:28.127Z,100795.17
2023-01-29T01:13:35.019Z,100798.70
2023-01-29T01:14:38.185Z,100795.03
2023-01-29T01:15:41.348Z,100793.19
2023-01-29T01:16:45.947Z,100798.42
2023-01-29T01:17:52.586Z,100794.72
2023-01-29T01:18:55.694Z,100794.58
2023-01-29T01:19:58.862Z,100795.42
2023-01-29T01:21:02.064Z,100787.22
2023-01-29T01:22:05.224Z,100787.22
2023-01-29T01:23:08.406Z,100796.13
2023-01-29T01:24:12.911Z,100788.08
2023-01-29T01:25:17.103Z,100785.38
2023-01-29T01:26:20.269Z,100783.55
2023-01-29T01:27:25.048Z,100784.39
2023-01-29T01:28:28.515Z,100783.55
2023-01-29T01:29:31.609Z,100784.53
2023-01-29T01:30:34.789Z,100781.00
2023-01-29T01:31:38.057Z,100784.53
2023-01-29T01:32:44.209Z,100782.70
2023-01-29T01:33:49.185Z,100782.70
2023-01-29T01:34:53.077Z,100781.00
2023-01-29T01:35:59.776Z,100782.84
2023-01-29T01:37:02.982Z,100778.45
2023-01-29T01:38:06.430Z,100774.08
2023-01-29T01:39:09.491Z,100789.34
2023-01-29T01:40:17.515Z,100779.45
2023-01-29T01:41:22.662Z,100778.45
2023-01-29T01:42:32.380Z,100775.77
2023-01-29T01:44:00.183Z,100782.84
2023-01-29T01:45:07.390Z,100781.00
2023-01-29T01:46:10.862Z,100781.00
2023-01-29T01:47:15.118Z,100775.63
2023-01-29T01:48:24.490Z,100778.17
2023-01-29T01:49:28.009Z,100778.31
2023-01-29T01:50:35.117Z,100779.30
2023-01-29T01:51:41.800Z,100778.59
2023-01-29T01:52:48.379Z,100784.82
2023-01-29T01:54:06.814Z,100788.36
2023-01-29T01:55:13.497Z,100776.77
2023-01-29T01:56:20.362Z,100779.63
2023-01-29T01:57:25.321Z,100781.28
2023-01-29T01:58:36.696Z,100781.28
2023-01-29T01:59:40.607Z,100782.13
2023-01-29T02:00:44.278Z,100779.63
2023-01-29T02:01:50.805Z,100775.23
2023-01-29T02:03:12.543Z,100781.60
2023-01-29T02:04:42.744Z,100780.61
2023-01-29T02:06:05.142Z,100789.34
2023-01-29T02:07:29.186Z,100783.83
2023-01-29T02:08:59.643Z,100784.82
2023-01-29T02:10:12.175Z,100782.98
2023-01-29T02:11:15.775Z,100782.98
2023-01-29T02:12:20.562Z,100788.36
2023-01-29T02:13:24.041Z,100780.30
2023-01-29T02:14:27.418Z,100789.20
2023-01-29T02:15:30.605Z,100788.36
2023-01-29T02:16:37.384Z,100775.91
2023-01-29T02:17:45.466Z,100783.97
2023-01-29T02:18:51.522Z,100790.05
2023-01-29T02:20:08.115Z,100788.22
2023-01-29T02:21:23.917Z,100780.16
2023-01-29T02:22:54.699Z,100783.55
2023-01-29T02:24:32.030Z,100779.84
2023-01-29T02:26:07.393Z,100779.02
2023-01-29T02:27:16.207Z,100778.00
2023-01-29T02:28:41.032Z,100775.31
2023-01-29T02:29:56.954Z,100772.63
2023-01-29T02:31:18.748Z,100779.70
2023-01-29T02:32:28.436Z,100774.47
2023-01-29T02:33:47.072Z,100780.86
2023-01-29T02:35:24.157Z,100771.95
2023-01-29T02:36:39.249Z,100770.26
2023-01-29T02:38:06.533Z,100771.11
2023-01-29T02:39:34.890Z,100770.26
2023-01-29T02:40:50.816Z,100761.35
2023-01-29T02:42:08.595Z,100768.56
2023-01-29T02:43:30.301Z,100771.39
2023-01-29T02:44:58.572Z,100767.86
2023-01-29T02:46:22.965Z,100771.39
2023-01-29T02:47:29.724Z,100770.40
2023-01-29T02:48:42.438Z,100764.88
2023-01-29T02:50:20.940Z,100765.73
2023-01-29T02:51:30.564Z,100760.22
2023-01-29T02:52:37.217Z,100762.06
2023-01-29T02:53:50.070Z,100752.30
2023-01-29T02:55:04.272Z,100760.36
2023-01-29T02:56:12.216Z,100761.20
2023-01-29T02:57:19.664Z,100762.91
2023-01-29T02:58:29.425Z,100755.66
2023-01-29T02:59:39.154Z,100759.20
2023-01-29T03:00:45.259Z,100755.66
2023-01-29T03:01:51.785Z,100756.51
2023-01-29T03:03:07.323Z,100764.88
2023-01-29T03:04:15.791Z,100765.73
2023-01-29T03:05:34.295Z,100758.66
2023-01-29T03:06:40.753Z,100754.14
2023-01-29T03:07:47.499Z,100760.64
2023-01-29T03:08:56.002Z,100751.20
2023-01-29T03:10:01.057Z,100760.43
2023-01-29T03:11:06.692Z,100758.73
2023-01-29T03:12:21.357Z,100754.34
2023-01-29T03:15:00.617Z,100750.75
2023-01-29T03:16:35.219Z,100760.00
2023-01-29T03:17:51.013Z,100760.85
2023-01-29T03:18:57.646Z,100762.69
2023-01-29T03:20:03.018Z,100750.28
2023-01-29T03:21:11.527Z,100755.94
2023-01-29T03:22:16.521Z,100757.78
2023-01-29T03:23:26.634Z,100762.16
2023-01-29T03:24:57.704Z,100768.38
2023-01-29T03:26:19.255Z,100768.23
2023-01-29T03:27:43.979Z,100761.17
2023-01-29T03:29:06.418Z,100764.98
2023-01-29T03:30:31.935Z,100761.63
2023-01-29T03:31:55.969Z,100768.13
2023-01-29T03:33:02.559Z,100766.28
2023-01-29T03:34:24.121Z,100769.68
2023-01-29T03:35:36.274Z,100765.16
2023-01-29T03:37:01.539Z,100765.83
2023-01-29T03:38:10.031Z,100761.17
2023-01-29T03:39:15.208Z,100766.23
2023-01-29T03:40:19.336Z,100762.69
2023-01-29T03:41:35.318Z,100772.44
2023-01-29T03:42:41.971Z,100764.25
2023-01-29T03:43:54.762Z,100763.25
2023-01-29T03:45:04.868Z,100766.48
2023-01-29T03:46:30.846Z,100763.78
2023-01-29T03:47:52.496Z,100761.81
2023-01-29T03:49:02.452Z,100759.80
2023-01-29T03:50:27.988Z,100759.66
2023-01-29T03:51:59.199Z,100755.84
2023-01-29T03:53:24.288Z,100759.37
2023-01-29T03:56:23.963Z,100757.14
2023-01-29T03:57:36.831Z,100759.20
2023-01-29T03:58:49.190Z,100752.16
2023-01-29T04:00:09.365Z,100753.30
2023-01-29T04:01:37.181Z,100750.92
2023-01-29T04:03:14.120Z,100752.91
2023-01-29T04:04:23.383Z,100746.83
2023-01-29T04:05:30.400Z,100739.08
2023-01-29T04:06:50.954Z,100751.66
2023-01-29T04:07:57.799Z,100749.97
2023-01-29T04:09:16.472Z,100751.95
2023-01-29T04:10:23.312Z,100755.34
2023-01-29T04:11:28.994Z,100744.59
2023-01-29T04:13:51.871Z,100749.62
2023-01-29T04:14:58.629Z,100751.52
2023-01-29T04:16:05.373Z,100754.03
2023-01-29T04:17:20.059Z,100744.00
2023-01-29T04:18:25.270Z,100752.77
2023-01-29T04:19:39.829Z,100746.37
2023-01-29T04:20:43.926Z,100748.91
2023-01-29T04:21:50.391Z,100746.22
2023-01-29T04:22:53.605Z,100749.62
2023-01-29T04:23:56.688Z,100748.77
2023-01-29T04:25:07.983Z,100752.44
2023-01-29T04:26:41.711Z,100753.44
2023-01-29T04:28:06.177Z,100754.42
2023-01-29T04:29:16.845Z,100750.22
2023-01-29T04:33:12.323Z,100747.78
2023-01-29T04:34:26.971Z,100747.98
2023-01-29T04:35:35.491Z,100744.59
2023-01-29T04:36:47.700Z,100744.59
2023-01-29T04:38:03.060Z,100744.59
2023-01-29T04:39:12.816Z,100744.59
2023-01-29T04:40:19.529Z,100736.39
2023-01-29T04:41:35.445Z,100735.41
2023-01-29T04:43:06.518Z,100740.61
2023-01-29T04:44:23.384Z,100734.24
2023-01-29T04:45:52.543Z,100730.56
2023-01-29T04:46:59.435Z,100736.25
2023-01-29T04:48:12.033Z,100733.85
2023-01-29T04:49:39.940Z,100737.53
2023-01-29T04:50:58.430Z,100732.16
2023-01-29T04:52:08.313Z,100738.37
2023-01-29T04:53:15.060Z,100736.69
2023-01-29T04:54:38.174Z,100734.84
2023-01-29T04:55:53.317Z,100733.01
2023-01-29T04:57:05.826Z,100734.84
2023-01-29T04:58:36.719Z,100731.63
2023-01-29T04:59:49.261Z,100739.83
2023-01-29T05:00:54.369Z,100731.77
2023-01-29T05:02:02.701Z,100730.78
2023-01-29T05:03:08.589Z,100744.06
2023-01-29T05:04:14.866Z,100742.23
2023-01-29T05:05:19.859Z,100736.01
2023-01-29T05:06:25.067Z,100739.55
2023-01-29T05:07:30.634Z,100738.70
2023-01-29T05:08:35.596Z,100739.55
2023-01-29T05:09:39.377Z,100736.69
2023-01-29T05:10:42.965Z,100743.89
2023-01-29T05:11:48.965Z,100742.05
2023-01-29T05:12:55.693Z,100742.05
2023-01-29T05:14:01.260Z,100741.20
2023-01-29T05:15:08.194Z,100743.75
2023-01-29T05:16:22.936Z,100740.92
2023-01-29T05:17:26.540Z,100745.13
2023-01-29T05:18:30.567Z,100742.30
2023-01-29T05:19:33.848Z,100746.68
2023-01-29T05:20:39.985Z,100746.54
2023-01-29T05:21:45.902Z,100742.86
2023-01-29T05:22:49.174Z,100744.53
2023-01-29T05:24:12.988Z,100740.00
2023-01-29T05:25:25.565Z,100746.08
2023-01-29T05:26:47.384Z,100740.56
2023-01-29T05:28:03.638Z,100750.46
2023-01-29T05:29:07.731Z,100744.38
2023-01-29T05:30:11.342Z,100743.53
2023-01-29T05:31:14.826Z,100745.37
2023-01-29T05:32:18.041Z,100749.05
2023-01-29T05:33:27.482Z,100739.47
2023-01-29T05:34:30.661Z,100755.73
2023-01-29T05:35:34.221Z,100751.52
2023-01-29T05:36:37.382Z,100747.28
2023-01-29T05:37:40.586Z,100751.13
2023-01-29T05:38:43.755Z,100752.27
2023-01-29T05:39:46.928Z,100754.95
2023-01-29T05:40:50.562Z,100754.81
2023-01-29T05:41:53.721Z,100755.80
2023-01-29T05:42:56.945Z,100755.80
2023-01-29T05:44:00.113Z,100751.95
2023-01-29T05:45:03.669Z,100755.48
2023-01-29T05:46:07.012Z,100758.87
2023-01-29T05:47:10.194Z,100754.34
2023-01-29T05:48:13.503Z,100756.05
2023-01-29T05:49:17.567Z,100754.20
2023-01-29T05:50:20.754Z,100757.57
2023-01-29T05:51:23.980Z,100752.05
2023-01-29T05:52:27.044Z,100750.08
2023-01-29T05:53:30.919Z,100757.11
2023-01-29T05:54:37.239Z,100746.37
2023-01-29T05:55:45.519Z,100759.52
2023-01-29T05:56:49.013Z,100748.63
2023-01-29T05:57:52.213Z,100747.60
2023-01-29T05:58:55.871Z,100752.83
2023-01-29T05:59:59.047Z,100750.00
2023-01-29T06:01:17.235Z,100754.39
2023-01-29T06:02:20.720Z,100749.02
2023-01-29T06:03:23.795Z,100751.70
2023-01-29T06:04:26.988Z,100745.48
2023-01-29T06:05:30.198Z,100749.02
2023-01-29T06:06:33.463Z,100743.64
2023-01-29T06:07:36.821Z,100754.39
2023-01-29T06:08:40.802Z,100750.84
2023-01-29T06:09:44.000Z,100753.39
2023-01-29T06:10:47.130Z,100755.23
2023-01-29T06:11:50.277Z,100746.15
2023-01-29T06:12:53.461Z,100749.69
2023-01-29T06:13:56.644Z,100749.54
2023-01-29T06:14:59.832Z,100754.77
2023-01-29T06:16:11.820Z,100760.00
2023-01-29T06:17:17.906Z,100750.77
2023-01-29T06:18:21.169Z,100751.48
2023-01-29T06:19:24.388Z,100744.94
2023-01-29T06:20:27.909Z,100752.53
2023-01-29T06:21:31.021Z,100752.53
2023-01-29T06:22:34.122Z,100743.34
2023-01-29T06:23:37.889Z,100753.09
2023-01-29T06:24:41.143Z,100745.70
2023-01-29T06:25:44.442Z,100742.88
2023-01-29T06:26:47.762Z,100744.56
2023-01-29T06:27:51.159Z,100746.09
2023-01-29T06:28:54.364Z,100743.25
2023-01-29T06:29:57.566Z,100748.48
2023-01-29T06:31:23.668Z,100741.94
2023-01-29T06:32:10.774Z,100739.10
2023-01-29T06:33:14.017Z,100745.18
2023-01-29T06:34:17.377Z,100745.85
2023-01-29T06:35:20.563Z,100746.55
2023-01-29T06:36:23.822Z,100739.48
2023-01-29T06:37:28.826Z,100743.16
2023-01-29T06:38:32.506Z,100740.80
2023-01-29T06:39:35.672Z,100741.79
2023-01-29T06:40:38.974Z,100741.94
2023-01-29T06:41:42.185Z,100746.31
2023-01-29T06:42:46.226Z,100748.16
2023-01-29T06:43:49.391Z,100746.31
2023-01-29T06:44:52.445Z,100740.80
2023-01-29T06:45:57.032Z,100747.02
2023-01-29T06:47:00.352Z,100742.49
2023-01-29T06:48:03.584Z,100747.02
2023-01-29T06:49:06.761Z,100738.81
2023-01-29T06:50:11.109Z,100743.34
2023-01-29T06:51:14.304Z,100744.33
2023-01-29T06:52:17.387Z,100733.58
2023-01-29T06:53:21.268Z,100745.18
2023-01-29T06:54:24.520Z,100747.87
2023-01-29T06:55:27.694Z,100745.18
2023-01-29T06:56:30.869Z,100738.11
2023-01-29T06:57:33.946Z,100738.11
2023-01-29T06:58:37.909Z,100739.10
2023-01-29T06:59:41.157Z,100740.94
2023-01-29T07:00:44.249Z,100729.20
2023-01-29T07:01:47.449Z,100729.90
2023-01-29T07:02:50.637Z,100736.80
2023-01-29T07:03:53.941Z,100732.96
2023-01-29T07:04:56.953Z,100731.13
2023-01-29T07:06:00.221Z,100731.80
2023-01-29T07:07:03.602Z,100731.64
2023-01-29T07:08:06.837Z,100740.41
2023-01-29T07:09:13.028Z,100732.17
2023-01-29T07:10:16.922Z,100734.70
2023-01-29T07:11:20.221Z,100726.64
2023-01-29T07:12:23.352Z,100731.87
2023-01-29T07:13:26.853Z,100739.94
2023-01-29T07:14:30.014Z,100737.25
2023-01-29T07:15:33.110Z,100729.19
2023-01-29T07:16:36.337Z,100737.11
2023-01-29T07:17:39.462Z,100738.77
2023-01-29T07:18:42.645Z,100744.00
2023-01-29T07:19:45.725Z,100734.94
2023-01-29T07:20:49.010Z,100741.02
2023-01-29T07:21:52.193Z,100740.84
2023-01-29T07:22:56.752Z,100730.92
2023-01-29T07:24:01.822Z,100739.70
2023-01-29T07:25:05.996Z,100735.83
2023-01-29T07:26:10.526Z,100733.69
2023-01-29T07:27:13.717Z,100732.70
2023-01-29T07:28:17.998Z,100730.82
2023-01-29T07:29:21.178Z,100737.89
2023-01-29T07:30:24.348Z,100735.91
2023-01-29T07:31:27.825Z,100733.91
2023-01-29T07:32:31.064Z,100734.58
2023-01-29T07:33:34.362Z,100733.44
2023-01-29T07:34:37.533Z,100738.64
2023-01-29T07:35:43.037Z,100738.34
2023-01-29T07:36:46.203Z,100734.66
2023-01-29T07:37:50.130Z,100730.12
2023-01-29T07:38:53.270Z,100734.47
2023-01-29T07:39:56.463Z,100735.50
2023-01-29T07:41:03.169Z,100738.19
2023-01-29T07:42:06.328Z,100739.19
2023-01-29T07:43:10.191Z,100736.34
2023-01-29T07:44:14.304Z,100739.03
2023-01-29T07:45:17.605Z,100733.66
2023-01-29T07:46:21.058Z,100738.86
2023-01-29T07:47:24.254Z,100728.09
2023-01-29T07:48:27.506Z,100728.94
2023-01-29T07:49:30.588Z,100737.86
2023-01-29T07:50:34.868Z,100729.79
2023-01-29T07:51:38.075Z,100730.64
2023-01-29T07:52:41.269Z,100732.33
2023-01-29T07:53:44.606Z,100726.95
2023-01-29T07:54:49.699Z,100727.80
2023-01-29T07:55:52.951Z,100734.03
2023-01-29T07:56:56.171Z,100737.38
2023-01-29T07:58:02.231Z,100729.31
2023-01-29T07:59:05.346Z,100732.00
2023-01-29T08:00:11.510Z,100734.03
2023-01-29T08:02:28.615Z,100729.05
2023-01-29T08:03:31.744Z,100736.38
2023-01-29T08:04:34.950Z,100732.70
2023-01-29T08:05:38.329Z,100735.39
2023-01-29T08:06:43.697Z,100727.16
2023-01-29T08:08:05.334Z,100729.67
2023-01-29T08:08:56.781Z,100728.53
2023-01-29T08:10:00.004Z,100729.05
2023-01-29T08:11:05.031Z,100728.89
2023-01-29T08:12:08.233Z,100728.74
2023-01-29T08:13:11.387Z,100723.17
2023-01-29T08:14:16.344Z,100727.56
2023-01-29T08:15:19.427Z,100721.03
2023-01-29T08:16:22.813Z,100722.72
2023-01-29T08:17:25.854Z,100718.19
2023-01-29T08:18:30.932Z,100719.00
2023-01-29T08:19:34.162Z,100711.77
2023-01-29T08:20:40.172Z,100717.85
2023-01-29T08:21:43.387Z,100715.86
2023-01-29T08:22:46.522Z,100712.13
2023-01-29T08:23:51.548Z,100704.60
2023-01-29T08:25:06.305Z,100701.72
2023-01-29T08:26:01.412Z,100707.80
2023-01-29T08:27:04.619Z,100702.27
2023-01-29T08:28:08.272Z,100703.77
2023-01-29T08:29:11.971Z,100698.08
2023-01-29T08:30:16.943Z,100700.77
2023-01-29T08:31:20.862Z,100706.82
2023-01-29T08:32:24.015Z,100696.90
2023-01-29T08:33:38.620Z,100689.67
2023-01-29T08:35:50.844Z,100698.14
2023-01-29T08:36:54.509Z,100699.13
2023-01-29T08:38:00.793Z,100697.09
2023-01-29T08:39:03.876Z,100698.45
2023-01-29T08:40:10.242Z,100695.61
2023-01-29T08:41:13.422Z,100696.30
2023-01-29T08:42:16.398Z,100689.72
2023-01-29T08:43:21.509Z,100690.42
2023-01-29T08:44:24.742Z,100691.77
2023-01-29T08:45:27.970Z,100692.45
2023-01-29T08:46:31.701Z,100693.15
2023-01-29T08:47:34.773Z,100695.00
2023-01-29T08:48:37.965Z,100693.15
2023-01-29T08:49:41.217Z,100684.88
2023-01-29T08:50:44.628Z,100687.77
2023-01-29T08:51:47.896Z,100688.77
2023-01-29T08:52:51.239Z,100685.38
2023-01-29T08:53:54.481Z,100685.53
2023-01-29T08:54:57.655Z,100684.03
2023-01-29T08:56:00.778Z,100684.87
2023-01-29T08:57:05.757Z,100680.48
2023-01-29T08:58:11.382Z,100681.49
2023-01-29T08:59:14.565Z,100677.29
2023-01-29T09:00:18.824Z,100685.38
2023-01-29T09:01:22.139Z,100679.30
2023-01-29T09:02:25.426Z,100673.22
2023-01-29T09:03:28.600Z,100683.33
2023-01-29T09:04:31.763Z,100676.41
2023-01-29T09:05:35.934Z,100678.41
2023-01-29T09:06:39.188Z,100677.59
2023-01-29T09:07:42.395Z,100682.13
2023-01-29T09:08:45.612Z,100677.74
2023-01-29T09:09:48.794Z,100677.74
2023-01-29T09:10:52.051Z,100676.89
2023-01-29T09:11:55.122Z,100680.28
2023-01-29T09:12:58.353Z,100669.33
2023-01-29T09:14:01.525Z,100675.55
2023-01-29T09:15:05.122Z,100675.41
2023-01-29T09:16:09.632Z,100676.09
2023-01-29T09:17:12.834Z,100673.22
2023-01-29T09:18:16.225Z,100670.52
2023-01-29T09:19:21.167Z,100676.75
2023-01-29T09:20:24.469Z,100676.91
2023-01-29T09:21:27.621Z,100674.40
2023-01-29T09:22:30.963Z,100669.17
2023-01-29T09:23:34.303Z,100672.02
2023-01-29T09:24:37.518Z,100670.17
2023-01-29T09:25:42.562Z,100670.17
2023-01-29T09:26:45.880Z,100671.02
2023-01-29T09:27:51.952Z,100667.33
2023-01-29T09:28:55.158Z,100666.32
2023-01-29T09:29:58.454Z,100668.02
2023-01-29T09:31:02.620Z,100666.14
2023-01-29T09:32:07.027Z,100670.70
2023-01-29T09:33:10.253Z,100664.47
2023-01-29T09:34:13.713Z,100664.47
2023-01-29T09:35:17.296Z,100661.94
2023-01-29T09:36:20.820Z,100664.78
2023-01-29T09:37:24.006Z,100662.94
2023-01-29T09:38:27.181Z,100669.17
2023-01-29T09:39:30.351Z,100664.78
2023-01-29T09:40:56.611Z,100668.66
2023-01-29T09:42:27.376Z,100663.73
2023-01-29T09:44:00.096Z,100661.23
2023-01-29T09:45:06.880Z,100669.62
2023-01-29T09:46:16.990Z,100666.92
2023-01-29T09:47:23.059Z,100673.00
2023-01-29T09:48:29.855Z,100673.85
2023-01-29T09:49:40.990Z,100671.00
2023-01-29T09:50:47.895Z,100671.00
2023-01-29T09:51:54.733Z,100667.47
2023-01-29T09:53:27.214Z,100657.70
2023-01-29T09:54:46.247Z,100651.62
2023-01-29T09:55:53.011Z,100654.31
2023-01-29T09:56:57.452Z,100659.39
2023-01-29T09:58:28.661Z,100664.59
2023-01-29T09:59:32.375Z,100661.89
2023-01-29T10:00:50.958Z,100663.08
2023-01-29T10:02:16.041Z,100664.92
2023-01-29T10:03:45.562Z,100664.23
2023-01-29T10:05:11.064Z,100662.73
2023-01-29T10:06:21.147Z,100665.42
2023-01-29T10:07:43.039Z,100660.19
2023-01-29T10:08:49.820Z,100661.88
2023-01-29T10:10:16.430Z,100658.34
2023-01-29T10:11:23.149Z,100654.80
2023-01-29T10:12:45.029Z,100646.03
2023-01-29T10:14:08.280Z,100645.88
2023-01-29T10:15:18.265Z,100646.58
2023-01-29T10:16:31.045Z,100645.58
2023-01-29T10:18:03.476Z,100643.70
2023-01-29T10:19:13.040Z,100638.16
2023-01-29T10:20:44.623Z,100640.35
2023-01-29T10:22:06.542Z,100644.58
2023-01-29T10:23:17.989Z,100640.39
2023-01-29T10:24:48.851Z,100637.36
2023-01-29T10:25:53.427Z,100636.05
2023-01-29T10:26:57.930Z,100635.55
2023-01-29T10:28:01.571Z,100633.36
2023-01-29T10:29:07.513Z,100635.89
2023-01-29T10:30:21.052Z,100634.70
2023-01-29T10:31:33.755Z,100635.23
2023-01-29T10:32:37.294Z,100625.11
2023-01-29T10:33:49.152Z,100630.03
2023-01-29T10:36:12.477Z,100623.81
2023-01-29T10:37:23.627Z,100626.48
2023-01-29T10:38:44.944Z,100623.63
2023-01-29T10:39:50.143Z,100626.17
2023-01-29T10:40:59.781Z,100626.17
2023-01-29T10:42:08.332Z,100622.63
2023-01-29T10:43:23.911Z,100621.78
2023-01-29T10:44:46.957Z,100615.70
2023-01-29T10:46:05.968Z,100616.71
2023-01-29T10:47:12.833Z,100623.13
2023-01-29T10:48:45.297Z,100619.59
2023-01-29T10:51:20.852Z,100616.73
2023-01-29T10:52:44.027Z,100610.83
2023-01-29T10:54:02.471Z,100618.06
2023-01-29T10:55:15.225Z,100620.06
2023-01-29T10:56:28.360Z,100609.29
2023-01-29T10:57:57.814Z,100601.20
2023-01-29T10:59:07.326Z,100604.94
2023-01-29T11:00:26.028Z,100616.72
2023-01-29T11:01:29.316Z,100609.64
2023-01-29T11:02:34.119Z,100608.11
2023-01-29T11:03:37.313Z,100602.91
2023-01-29T11:04:40.532Z,100601.22
2023-01-29T11:06:11.330Z,100591.28
2023-01-29T11:07:17.743Z,100602.06
2023-01-29T11:08:27.877Z,100601.38
2023-01-29T11:09:37.440Z,100593.48
2023-01-29T11:12:14.685Z,100601.05
2023-01-29T11:13:18.190Z,100590.78
2023-01-29T11:14:27.859Z,100596.17
2023-01-29T11:15:34.357Z,100593.64
2023-01-29T11:16:46.681Z,100596.17
2023-01-29T11:18:15.039Z,100596.98
2023-01-29T11:19:18.207Z,100592.45
2023-01-29T11:20:29.441Z,100595.33
2023-01-29T11:21:34.496Z,100587.25
2023-01-29T11:22:39.978Z,100589.94
2023-01-29T11:23:43.218Z,100595.33
2023-01-29T11:25:10.546Z,100593.64
2023-01-29T11:26:21.681Z,100585.56
2023-01-29T11:27:28.200Z,100597.18
2023-01-29T11:28:43.287Z,100598.87
2023-01-29T11:29:52.132Z,100599.53
2023-01-29T11:30:57.213Z,100595.83
2023-01-29T11:32:03.817Z,100600.02
2023-01-29T11:33:22.974Z,100593.63
2023-01-29T11:34:32.402Z,100596.02
2023-01-29T11:35:36.201Z,100592.31
2023-01-29T11:36:41.790Z,100588.58
2023-01-29T11:37:46.304Z,100590.43
2023-01-29T11:38:54.866Z,100591.96
2023-01-29T11:39:58.040Z,100587.42
2023-01-29T11:41:10.941Z,100588.92
2023-01-29T11:42:21.350Z,100587.76
2023-01-29T11:43:31.811Z,100589.45
2023-01-29T11:44:41.701Z,100587.41
2023-01-29T11:45:45.519Z,100594.48
2023-01-29T11:46:51.432Z,100592.64
2023-01-29T11:47:56.363Z,100591.64
2023-01-29T11:49:14.191Z,100591.64
2023-01-29T11:50:04.977Z,100592.48
2023-01-29T11:51:09.857Z,100595.33
2023-01-29T11:52:14.968Z,100595.33
2023-01-29T11:53:27.831Z,100596.18
2023-01-29T11:54:34.599Z,100596.18
2023-01-29T11:55:50.220Z,100590.79
2023-01-29T11:56:46.847Z,100597.87
2023-01-29T11:58:05.533Z,100594.33
2023-01-29T11:59:30.564Z,100588.09
2023-01-29T12:00:37.461Z,100595.33
2023-01-29T12:01:41.670Z,100595.69
2023-01-29T12:02:48.011Z,100598.53
2023-01-29T12:03:53.483Z,100601.39
2023-01-29T12:05:08.847Z,100597.84
2023-01-29T12:07:27.553Z,100605.61
2023-01-29T12:08:37.309Z,100613.17
2023-01-29T12:09:42.372Z,100606.97
2023-01-29T12:10:45.651Z,100612.36
2023-01-29T12:11:48.725Z,100610.66
2023-01-29T12:12:51.804Z,100614.36
2023-01-29T12:13:57.394Z,100609.29
2023-01-29T12:16:36.257Z,100614.86
2023-01-29T12:17:40.998Z,100613.49
2023-01-29T12:18:56.869Z,100619.39
2023-01-29T12:20:03.628Z,100617.03
2023-01-29T12:21:19.577Z,100620.23
2023-01-29T12:22:29.213Z,100614.31
2023-01-29T12:23:41.782Z,100610.27
2023-01-29T12:24:51.691Z,100615.16
2023-01-29T12:26:17.325Z,100618.34
2023-01-29T12:27:30.177Z,100612.42
2023-01-29T12:28:56.487Z,100611.77
2023-01-29T12:30:09.365Z,100612.77
2023-01-29T12:31:24.942Z,100608.70
2023-01-29T12:32:35.113Z,100613.27
2023-01-29T12:33:59.278Z,100612.42
2023-01-29T12:35:24.261Z,100614.27
2023-01-29T12:36:40.117Z,100618.95
2023-01-29T12:37:52.804Z,100614.77
2023-01-29T12:38:56.128Z,100611.23
2023-01-29T12:40:01.313Z,100612.23
2023-01-29T12:41:10.908Z,100618.61
2023-01-29T12:42:21.350Z,100616.92
2023-01-29T12:43:36.944Z,100616.92
2023-01-29T12:44:44.548Z,100616.07
2023-01-29T12:45:57.365Z,100614.23
2023-01-29T12:47:06.033Z,100615.07
2023-01-29T12:48:12.865Z,100616.77
2023-01-29T12:49:22.437Z,100609.84
2023-01-29T12:50:31.634Z,100607.15
2023-01-29T12:51:38.413Z,100615.23
2023-01-29T12:53:00.227Z,100614.23
2023-01-29T12:54:09.551Z,100607.69
2023-01-29T12:55:22.169Z,100614.58
2023-01-29T12:56:40.531Z,100618.80
2023-01-29T12:57:50.371Z,100618.31
2023-01-29T12:58:55.366Z,100616.13
2023-01-29T13:00:08.695Z,100614.12
2023-01-29T13:01:27.264Z,100616.47
2023-01-29T13:02:55.271Z,100613.63
2023-01-29T13:04:20.172Z,100616.00
2023-01-29T13:05:35.396Z,100613.31
2023-01-29T13:06:42.303Z,100608.77
2023-01-29T13:07:49.584Z,100611.46
2023-01-29T13:08:56.265Z,100613.97
2023-01-29T13:11:20.132Z,100610.96
2023-01-29T13:12:30.922Z,100606.58
2023-01-29T13:13:40.565Z,100610.96
2023-01-29T13:14:53.154Z,100613.47
2023-01-29T13:15:58.219Z,100609.96
2023-01-29T13:17:29.072Z,100617.00
2023-01-29T13:18:41.984Z,100615.34
2023-01-29T13:19:48.271Z,100620.05
2023-01-29T13:20:52.486Z,100620.20
2023-01-29T13:21:59.270Z,100621.20